Monterrey, Mexico

1:58 AM EST on March 31, 2015 (GMT -0500)
La_Nacional_San_Jeronimo | | Change Station
CLOSE
Current Station
Personal Weather Station
Location: Monterrey, NUEVO LEóN
Elevation: 1929 ft
Nearby Weather Stations

Elev 1929 ft 25.68 °N, 100.36 °W | Updated 7 minutes ago

Overcast
Overcast
70.2 °F
Feels Like 70.2 °F
N
3.8
Wind Variable Wind from WNW

Today
High -- | Low -- °F
--% Chance of Precip.
Yesterday
High -- | Low -- °F
Precip. -- in
7:33 AM 7:57 PM
Waxing Gibbous, 85% visible
Pressure 30.05 in
Visibility 5.0 miles
Clouds Mostly Cloudy 1000 ft
Overcast 1500 ft
Dew Point 66 °F
Humidity 87%
Rainfall 0.00 in
Snow Depth Not available.
UV 0 out of 12
Pollen Not available.
Air Quality Not available.
Flu Activity Not available.
METAR MMMY 310642Z 07006KT 5SM BKN010 OVC015 20/18 A3005 RMK 8/5// HZY

More Conditions Fewer Conditions

Pressure 30.05 in
Visibility 5.0 miles
Clouds Mostly Cloudy 1000 ft
Overcast 1500 ft
Dew Point 66 °F
Humidity 87%
Rainfall 0.00 in
Snow Depth Not available.
UV 0 out of 12
Pollen Not available.
Air Quality Not available.
Flu Activity Not available.
METAR MMMY 310642Z 07006KT 5SM BKN010 OVC015 20/18 A3005 RMK 8/5// HZY

More Conditions Fewer Conditions

10-Day Weather Forecast

Almanac

Astronomy

Mar. 31, 2015 Rise Set
Actual Time
Civil Twilight
Nautical Twilight
Astronomical Twilight
Moon
Length of Visible Light
Length of Day
Tomorrow will be .
, % of the Moon is Illuminated

Today's Extremes

Country Highs Country Lows

Community

WunderPhotos

Upload Photos

1,809,729 photos uploaded!

WunderBlogs® & News

Nearby

Air Quality

  Air Quality AQ Index Pollutant
Not available.

Snow Depth

Station Depth Elevation

Earthquake Activity

City Distance Mag. Time & Date
Minimum magnitude displayed is 2.5.

Coastal Water Temperatures

Place Temperature

Stations

Nearby Weather Stations

Station Location Temp. Windchill Dew Point Humidity Wind Precip. Elev Updated Type